sensor_id;sensor_type;location;lat;lon;timestamp;P1;durP1;ratioP1;P2;durP2;ratioP2
47153;SDS011;32907;41.412;2.164;2022-11-09T00:01:20;8.85;;;5.10;;
47153;SDS011;32907;41.412;2.164;2022-11-09T00:03:52;6.47;;;4.30;;
47153;SDS011;32907;41.412;2.164;2022-11-09T00:06:30;7.20;;;4.70;;
47153;SDS011;32907;41.412;2.164;2022-11-09T00:08:59;9.23;;;4.13;;
47153;SDS011;32907;41.412;2.164;2022-11-09T00:11:34;7.15;;;4.03;;
47153;SDS011;32907;41.412;2.164;2022-11-09T00:14:03;9.32;;;5.20;;
47153;SDS011;32907;41.412;2.164;2022-11-09T00:16:33;8.77;;;6.07;;
47153;SDS011;32907;41.412;2.164;2022-11-09T00:19:01;10.10;;;6.53;;
47153;SDS011;32907;41.412;2.164;2022-11-09T00:21:29;8.18;;;7.00;;
47153;SDS011;32907;41.412;2.164;2022-11-09T00:23:56;9.07;;;7.00;;
47153;SDS011;32907;41.412;2.164;2022-11-09T00:26:24;9.60;;;7.28;;
47153;SDS011;32907;41.412;2.164;2022-11-09T00:28:52;14.30;;;9.25;;
47153;SDS011;32907;41.412;2.164;2022-11-09T00:31:21;16.08;;;10.68;;
47153;SDS011;32907;41.412;2.164;2022-11-09T00:33:54;17.17;;;11.13;;
47153;SDS011;32907;41.412;2.164;2022-11-09T00:36:23;12.60;;;8.32;;
47153;SDS011;32907;41.412;2.164;2022-11-09T00:38:53;13.52;;;7.97;;
47153;SDS011;32907;41.412;2.164;2022-11-09T00:41:23;11.20;;;6.80;;
47153;SDS011;32907;41.412;2.164;2022-11-09T00:43:54;9.60;;;5.68;;
47153;SDS011;32907;41.412;2.164;2022-11-09T00:46:23;6.93;;;5.28;;
47153;SDS011;32907;41.412;2.164;2022-11-09T00:48:53;7.10;;;5.22;;
47153;SDS011;32907;41.412;2.164;2022-11-09T00:51:22;8.43;;;5.32;;
47153;SDS011;32907;41.412;2.164;2022-11-09T00:53:50;9.93;;;6.40;;
47153;SDS011;32907;41.412;2.164;2022-11-09T00:56:21;8.90;;;6.05;;
47153;SDS011;32907;41.412;2.164;2022-11-09T00:58:52;9.70;;;6.25;;
47153;SDS011;32907;41.412;2.164;2022-11-09T01:01:23;8.10;;;5.72;;
47153;SDS011;32907;41.412;2.164;2022-11-09T01:03:51;9.18;;;5.57;;
47153;SDS011;32907;41.412;2.164;2022-11-09T01:06:20;8.10;;;5.03;;
47153;SDS011;32907;41.412;2.164;2022-11-09T01:08:50;8.27;;;4.40;;
47153;SDS011;32907;41.412;2.164;2022-11-09T01:11:20;6.05;;;4.18;;
47153;SDS011;32907;41.412;2.164;2022-11-09T01:13:51;7.88;;;4.75;;
47153;SDS011;32907;41.412;2.164;2022-11-09T01:16:21;6.53;;;4.30;;
47153;SDS011;32907;41.412;2.164;2022-11-09T01:18:51;7.05;;;4.80;;
47153;SDS011;32907;41.412;2.164;2022-11-09T01:21:26;8.85;;;5.15;;
47153;SDS011;32907;41.412;2.164;2022-11-09T01:23:54;6.15;;;4.60;;
47153;SDS011;32907;41.412;2.164;2022-11-09T01:26:26;6.85;;;4.80;;
47153;SDS011;32907;41.412;2.164;2022-11-09T01:28:55;7.07;;;5.20;;
47153;SDS011;32907;41.412;2.164;2022-11-09T01:31:24;8.18;;;5.20;;
47153;SDS011;32907;41.412;2.164;2022-11-09T01:33:52;7.35;;;5.20;;
47153;SDS011;32907;41.412;2.164;2022-11-09T01:36:21;7.18;;;4.78;;
47153;SDS011;32907;41.412;2.164;2022-11-09T01:38:49;5.05;;;4.40;;
47153;SDS011;32907;41.412;2.164;2022-11-09T01:41:19;7.03;;;4.93;;
47153;SDS011;32907;41.412;2.164;2022-11-09T01:44:29;6.10;;;4.25;;
47153;SDS011;32907;41.412;2.164;2022-11-09T01:46:53;7.35;;;4.40;;
47153;SDS011;32907;41.412;2.164;2022-11-09T01:49:32;6.65;;;4.35;;
47153;SDS011;32907;41.412;2.164;2022-11-09T01:52:05;7.32;;;4.40;;
47153;SDS011;32907;41.412;2.164;2022-11-09T01:54:45;6.07;;;4.93;;
47153;SDS011;32907;41.412;2.164;2022-11-09T01:57:20;8.65;;;6.07;;
47153;SDS011;32907;41.412;2.164;2022-11-09T01:59:54;10.02;;;5.80;;
47153;SDS011;32907;41.412;2.164;2022-11-09T02:02:40;8.95;;;4.90;;
47153;SDS011;32907;41.412;2.164;2022-11-09T02:05:15;6.35;;;4.93;;
47153;SDS011;32907;41.412;2.164;2022-11-09T02:07:50;6.97;;;4.32;;
47153;SDS011;32907;41.412;2.164;2022-11-09T02:13:05;6.32;;;4.72;;
47153;SDS011;32907;41.412;2.164;2022-11-09T02:15:38;6.07;;;4.57;;
47153;SDS011;32907;41.412;2.164;2022-11-09T02:18:12;7.40;;;4.40;;
47153;SDS011;32907;41.412;2.164;2022-11-09T02:20:44;6.03;;;3.88;;
47153;SDS011;32907;41.412;2.164;2022-11-09T02:23:15;9.40;;;4.88;;
47153;SDS011;32907;41.412;2.164;2022-11-09T02:25:44;5.65;;;4.28;;
47153;SDS011;32907;41.412;2.164;2022-11-09T02:28:16;5.03;;;4.20;;
47153;SDS011;32907;41.412;2.164;2022-11-09T02:30:45;5.57;;;4.60;;
47153;SDS011;32907;41.412;2.164;2022-11-09T02:33:18;6.78;;;4.90;;
47153;SDS011;32907;41.412;2.164;2022-11-09T02:35:47;6.55;;;5.00;;
47153;SDS011;32907;41.412;2.164;2022-11-09T02:38:14;8.23;;;4.75;;
47153;SDS011;32907;41.412;2.164;2022-11-09T02:40:43;6.65;;;5.03;;
47153;SDS011;32907;41.412;2.164;2022-11-09T02:43:14;8.02;;;5.00;;
47153;SDS011;32907;41.412;2.164;2022-11-09T02:45:45;7.22;;;4.95;;
47153;SDS011;32907;41.412;2.164;2022-11-09T02:48:13;7.18;;;5.05;;
47153;SDS011;32907;41.412;2.164;2022-11-09T02:50:41;6.85;;;4.50;;
47153;SDS011;32907;41.412;2.164;2022-11-09T02:53:09;7.20;;;5.18;;
47153;SDS011;32907;41.412;2.164;2022-11-09T02:55:41;7.38;;;4.90;;
47153;SDS011;32907;41.412;2.164;2022-11-09T02:58:09;6.85;;;4.40;;
47153;SDS011;32907;41.412;2.164;2022-11-09T03:00:38;5.57;;;4.20;;
47153;SDS011;32907;41.412;2.164;2022-11-09T03:03:06;8.63;;;5.03;;
47153;SDS011;32907;41.412;2.164;2022-11-09T03:05:34;7.35;;;4.30;;
47153;SDS011;32907;41.412;2.164;2022-11-09T03:08:02;7.55;;;4.70;;
47153;SDS011;32907;41.412;2.164;2022-11-09T03:10:33;6.60;;;4.80;;
47153;SDS011;32907;41.412;2.164;2022-11-09T03:13:01;8.10;;;5.78;;
47153;SDS011;32907;41.412;2.164;2022-11-09T03:15:29;8.30;;;6.68;;
47153;SDS011;32907;41.412;2.164;2022-11-09T03:17:57;8.38;;;6.85;;
47153;SDS011;32907;41.412;2.164;2022-11-09T03:20:25;8.23;;;6.72;;
47153;SDS011;32907;41.412;2.164;2022-11-09T03:22:55;11.65;;;6.68;;
47153;SDS011;32907;41.412;2.164;2022-11-09T03:25:24;6.53;;;5.78;;
47153;SDS011;32907;41.412;2.164;2022-11-09T03:27:57;8.05;;;5.90;;
47153;SDS011;32907;41.412;2.164;2022-11-09T03:30:26;8.63;;;5.65;;
47153;SDS011;32907;41.412;2.164;2022-11-09T03:32:58;9.15;;;6.13;;
47153;SDS011;32907;41.412;2.164;2022-11-09T03:35:28;8.82;;;6.60;;
47153;SDS011;32907;41.412;2.164;2022-11-09T03:37:56;10.10;;;8.38;;
47153;SDS011;32907;41.412;2.164;2022-11-09T03:40:25;10.68;;;7.68;;
47153;SDS011;32907;41.412;2.164;2022-11-09T03:42:53;9.50;;;7.60;;
47153;SDS011;32907;41.412;2.164;2022-11-09T03:45:20;8.35;;;7.07;;
47153;SDS011;32907;41.412;2.164;2022-11-09T03:47:48;9.77;;;7.40;;
47153;SDS011;32907;41.412;2.164;2022-11-09T03:50:16;9.57;;;7.07;;
47153;SDS011;32907;41.412;2.164;2022-11-09T03:52:44;10.40;;;6.88;;
47153;SDS011;32907;41.412;2.164;2022-11-09T03:55:13;10.32;;;6.78;;
47153;SDS011;32907;41.412;2.164;2022-11-09T03:57:41;7.88;;;6.55;;
47153;SDS011;32907;41.412;2.164;2022-11-09T04:00:11;9.38;;;7.03;;
47153;SDS011;32907;41.412;2.164;2022-11-09T04:02:40;10.07;;;7.50;;
47153;SDS011;32907;41.412;2.164;2022-11-09T04:05:08;10.52;;;7.70;;
47153;SDS011;32907;41.412;2.164;2022-11-09T04:07:37;9.75;;;7.30;;
47153;SDS011;32907;41.412;2.164;2022-11-09T04:10:05;8.93;;;7.38;;
47153;SDS011;32907;41.412;2.164;2022-11-09T04:12:33;10.27;;;6.82;;
47153;SDS011;32907;41.412;2.164;2022-11-09T04:15:01;7.57;;;6.05;;
47153;SDS011;32907;41.412;2.164;2022-11-09T04:17:29;8.25;;;6.68;;
47153;SDS011;32907;41.412;2.164;2022-11-09T04:19:59;8.75;;;6.30;;
47153;SDS011;32907;41.412;2.164;2022-11-09T04:22:28;9.45;;;6.13;;
47153;SDS011;32907;41.412;2.164;2022-11-09T04:24:55;8.93;;;6.15;;
47153;SDS011;32907;41.412;2.164;2022-11-09T04:27:23;7.65;;;6.53;;
47153;SDS011;32907;41.412;2.164;2022-11-09T04:29:51;8.65;;;6.35;;
47153;SDS011;32907;41.412;2.164;2022-11-09T04:32:19;8.98;;;6.18;;
47153;SDS011;32907;41.412;2.164;2022-11-09T04:34:47;7.82;;;5.95;;
47153;SDS011;32907;41.412;2.164;2022-11-09T04:37:14;9.25;;;5.63;;
47153;SDS011;32907;41.412;2.164;2022-11-09T04:39:42;7.55;;;5.88;;
47153;SDS011;32907;41.412;2.164;2022-11-09T04:42:10;8.82;;;5.70;;
47153;SDS011;32907;41.412;2.164;2022-11-09T04:44:38;10.85;;;6.03;;
47153;SDS011;32907;41.412;2.164;2022-11-09T04:47:06;7.53;;;5.75;;
47153;SDS011;32907;41.412;2.164;2022-11-09T04:49:34;8.85;;;6.32;;
47153;SDS011;32907;41.412;2.164;2022-11-09T04:52:02;10.38;;;7.38;;
47153;SDS011;32907;41.412;2.164;2022-11-09T04:54:31;8.32;;;6.78;;
47153;SDS011;32907;41.412;2.164;2022-11-09T04:57:00;7.35;;;6.10;;
47153;SDS011;32907;41.412;2.164;2022-11-09T04:59:27;9.05;;;6.65;;
47153;SDS011;32907;41.412;2.164;2022-11-09T05:01:55;8.48;;;6.65;;
47153;SDS011;32907;41.412;2.164;2022-11-09T05:04:23;8.05;;;6.50;;
47153;SDS011;32907;41.412;2.164;2022-11-09T05:06:50;10.05;;;6.90;;
47153;SDS011;32907;41.412;2.164;2022-11-09T05:09:18;8.00;;;5.97;;
47153;SDS011;32907;41.412;2.164;2022-11-09T05:11:46;8.00;;;6.35;;
47153;SDS011;32907;41.412;2.164;2022-11-09T05:14:14;7.53;;;6.07;;
47153;SDS011;32907;41.412;2.164;2022-11-09T05:16:41;7.93;;;6.22;;
47153;SDS011;32907;41.412;2.164;2022-11-09T05:19:09;8.77;;;6.10;;
47153;SDS011;32907;41.412;2.164;2022-11-09T05:21:39;7.80;;;6.60;;
47153;SDS011;32907;41.412;2.164;2022-11-09T05:24:07;11.02;;;7.35;;
47153;SDS011;32907;41.412;2.164;2022-11-09T05:26:37;9.25;;;7.22;;
47153;SDS011;32907;41.412;2.164;2022-11-09T05:29:07;9.80;;;7.43;;
47153;SDS011;32907;41.412;2.164;2022-11-09T05:31:36;10.45;;;8.07;;
47153;SDS011;32907;41.412;2.164;2022-11-09T05:34:06;9.98;;;7.30;;
47153;SDS011;32907;41.412;2.164;2022-11-09T05:36:38;11.75;;;8.48;;
47153;SDS011;32907;41.412;2.164;2022-11-09T05:39:06;11.40;;;8.60;;
47153;SDS011;32907;41.412;2.164;2022-11-09T05:41:34;12.15;;;10.15;;
47153;SDS011;32907;41.412;2.164;2022-11-09T05:44:02;12.45;;;10.32;;
47153;SDS011;32907;41.412;2.164;2022-11-09T05:46:31;13.35;;;10.07;;
47153;SDS011;32907;41.412;2.164;2022-11-09T05:49:00;14.25;;;9.85;;
47153;SDS011;32907;41.412;2.164;2022-11-09T05:51:28;12.05;;;9.30;;
47153;SDS011;32907;41.412;2.164;2022-11-09T05:53:55;10.27;;;9.15;;
47153;SDS011;32907;41.412;2.164;2022-11-09T05:56:24;10.15;;;8.65;;
47153;SDS011;32907;41.412;2.164;2022-11-09T05:58:52;11.98;;;8.88;;
47153;SDS011;32907;41.412;2.164;2022-11-09T06:01:20;12.00;;;8.40;;
47153;SDS011;32907;41.412;2.164;2022-11-09T06:03:47;10.93;;;8.63;;
47153;SDS011;32907;41.412;2.164;2022-11-09T06:06:15;12.02;;;8.18;;
47153;SDS011;32907;41.412;2.164;2022-11-09T06:08:44;10.70;;;8.13;;
47153;SDS011;32907;41.412;2.164;2022-11-09T06:11:12;10.80;;;8.10;;
47153;SDS011;32907;41.412;2.164;2022-11-09T06:13:49;11.15;;;7.30;;
47153;SDS011;32907;41.412;2.164;2022-11-09T06:16:16;12.88;;;8.75;;
47153;SDS011;32907;41.412;2.164;2022-11-09T06:18:44;11.77;;;9.18;;
47153;SDS011;32907;41.412;2.164;2022-11-09T06:21:12;15.50;;;8.95;;
47153;SDS011;32907;41.412;2.164;2022-11-09T06:23:40;10.63;;;8.27;;
47153;SDS011;32907;41.412;2.164;2022-11-09T06:26:08;11.70;;;8.82;;
47153;SDS011;32907;41.412;2.164;2022-11-09T06:28:38;16.48;;;9.48;;
47153;SDS011;32907;41.412;2.164;2022-11-09T06:31:08;16.42;;;10.90;;
47153;SDS011;32907;41.412;2.164;2022-11-09T06:33:42;21.55;;;13.27;;
47153;SDS011;32907;41.412;2.164;2022-11-09T06:36:12;15.20;;;11.85;;
47153;SDS011;32907;41.412;2.164;2022-11-09T06:38:42;18.48;;;11.68;;
47153;SDS011;32907;41.412;2.164;2022-11-09T06:41:09;17.13;;;12.13;;
47153;SDS011;32907;41.412;2.164;2022-11-09T06:43:37;15.48;;;10.45;;
47153;SDS011;32907;41.412;2.164;2022-11-09T06:46:05;16.08;;;11.05;;
47153;SDS011;32907;41.412;2.164;2022-11-09T06:48:33;15.40;;;10.20;;
47153;SDS011;32907;41.412;2.164;2022-11-09T06:51:01;14.80;;;9.65;;
47153;SDS011;32907;41.412;2.164;2022-11-09T06:53:30;13.75;;;8.85;;
47153;SDS011;32907;41.412;2.164;2022-11-09T06:56:01;11.85;;;7.78;;
47153;SDS011;32907;41.412;2.164;2022-11-09T06:58:33;12.00;;;7.22;;
47153;SDS011;32907;41.412;2.164;2022-11-09T07:01:08;10.32;;;7.30;;
47153;SDS011;32907;41.412;2.164;2022-11-09T07:06:07;12.32;;;7.28;;
47153;SDS011;32907;41.412;2.164;2022-11-09T07:08:36;12.70;;;8.10;;
47153;SDS011;32907;41.412;2.164;2022-11-09T07:11:06;13.05;;;8.73;;
47153;SDS011;32907;41.412;2.164;2022-11-09T07:13:37;12.70;;;8.75;;
47153;SDS011;32907;41.412;2.164;2022-11-09T07:16:09;13.55;;;8.88;;
47153;SDS011;32907;41.412;2.164;2022-11-09T07:18:40;19.45;;;8.90;;
47153;SDS011;32907;41.412;2.164;2022-11-09T07:21:10;12.73;;;8.85;;
47153;SDS011;32907;41.412;2.164;2022-11-09T07:23:40;12.48;;;8.27;;
47153;SDS011;32907;41.412;2.164;2022-11-09T07:26:09;12.68;;;8.32;;
47153;SDS011;32907;41.412;2.164;2022-11-09T07:28:37;15.05;;;9.77;;
47153;SDS011;32907;41.412;2.164;2022-11-09T07:31:04;13.07;;;9.70;;
47153;SDS011;32907;41.412;2.164;2022-11-09T07:33:32;15.00;;;10.05;;
47153;SDS011;32907;41.412;2.164;2022-11-09T07:36:01;14.27;;;9.63;;
47153;SDS011;32907;41.412;2.164;2022-11-09T07:38:30;14.82;;;9.38;;
47153;SDS011;32907;41.412;2.164;2022-11-09T07:40:58;16.30;;;9.80;;
47153;SDS011;32907;41.412;2.164;2022-11-09T07:43:28;13.55;;;9.52;;
47153;SDS011;32907;41.412;2.164;2022-11-09T07:45:58;17.05;;;9.57;;
47153;SDS011;32907;41.412;2.164;2022-11-09T07:48:30;9.68;;;8.00;;
47153;SDS011;32907;41.412;2.164;2022-11-09T07:50:59;14.95;;;9.02;;
47153;SDS011;32907;41.412;2.164;2022-11-09T07:53:27;14.85;;;9.23;;
47153;SDS011;32907;41.412;2.164;2022-11-09T07:55:56;18.48;;;9.15;;
47153;SDS011;32907;41.412;2.164;2022-11-09T07:58:26;17.40;;;8.45;;
47153;SDS011;32907;41.412;2.164;2022-11-09T08:00:54;14.27;;;7.68;;
47153;SDS011;32907;41.412;2.164;2022-11-09T08:03:23;15.75;;;9.68;;
47153;SDS011;32907;41.412;2.164;2022-11-09T08:05:51;16.30;;;8.40;;
47153;SDS011;32907;41.412;2.164;2022-11-09T08:08:19;24.52;;;9.43;;
47153;SDS011;32907;41.412;2.164;2022-11-09T08:10:47;17.73;;;9.38;;
47153;SDS011;32907;41.412;2.164;2022-11-09T08:13:20;21.58;;;9.77;;
47153;SDS011;32907;41.412;2.164;2022-11-09T08:15:48;22.15;;;11.30;;
47153;SDS011;32907;41.412;2.164;2022-11-09T08:18:17;19.75;;;10.63;;
47153;SDS011;32907;41.412;2.164;2022-11-09T08:20:49;20.40;;;11.15;;
47153;SDS011;32907;41.412;2.164;2022-11-09T08:23:18;21.10;;;11.18;;
47153;SDS011;32907;41.412;2.164;2022-11-09T08:25:48;22.75;;;10.85;;
47153;SDS011;32907;41.412;2.164;2022-11-09T08:28:16;16.83;;;10.57;;
47153;SDS011;32907;41.412;2.164;2022-11-09T08:30:52;17.80;;;11.05;;
47153;SDS011;32907;41.412;2.164;2022-11-09T08:35:50;24.85;;;11.15;;
47153;SDS011;32907;41.412;2.164;2022-11-09T08:38:20;18.35;;;9.88;;
47153;SDS011;32907;41.412;2.164;2022-11-09T08:40:49;18.20;;;10.43;;
47153;SDS011;32907;41.412;2.164;2022-11-09T08:43:17;16.95;;;10.05;;
47153;SDS011;32907;41.412;2.164;2022-11-09T08:45:45;15.05;;;9.43;;
47153;SDS011;32907;41.412;2.164;2022-11-09T08:48:15;15.98;;;9.32;;
47153;SDS011;32907;41.412;2.164;2022-11-09T08:50:43;17.35;;;9.50;;
47153;SDS011;32907;41.412;2.164;2022-11-09T08:53:11;14.48;;;7.85;;
47153;SDS011;32907;41.412;2.164;2022-11-09T08:55:40;17.42;;;7.55;;
47153;SDS011;32907;41.412;2.164;2022-11-09T08:59:57;10.30;;;6.13;;
47153;SDS011;32907;41.412;2.164;2022-11-09T09:02:25;9.73;;;5.65;;
47153;SDS011;32907;41.412;2.164;2022-11-09T09:04:53;12.75;;;6.07;;
47153;SDS011;32907;41.412;2.164;2022-11-09T09:07:22;17.38;;;8.75;;
47153;SDS011;32907;41.412;2.164;2022-11-09T09:09:50;13.32;;;7.78;;
47153;SDS011;32907;41.412;2.164;2022-11-09T09:12:18;9.02;;;6.10;;
47153;SDS011;32907;41.412;2.164;2022-11-09T09:14:46;8.85;;;5.45;;
47153;SDS011;32907;41.412;2.164;2022-11-09T09:17:14;10.10;;;5.05;;
47153;SDS011;32907;41.412;2.164;2022-11-09T09:19:42;17.15;;;5.07;;
47153;SDS011;32907;41.412;2.164;2022-11-09T09:22:16;14.90;;;6.40;;
47153;SDS011;32907;41.412;2.164;2022-11-09T09:24:44;21.30;;;8.48;;
47153;SDS011;32907;41.412;2.164;2022-11-09T09:27:12;15.27;;;8.77;;
47153;SDS011;32907;41.412;2.164;2022-11-09T09:29:40;9.40;;;4.78;;
47153;SDS011;32907;41.412;2.164;2022-11-09T09:32:08;10.90;;;4.82;;
47153;SDS011;32907;41.412;2.164;2022-11-09T09:34:36;9.38;;;4.00;;
47153;SDS011;32907;41.412;2.164;2022-11-09T09:37:03;10.85;;;3.75;;
47153;SDS011;32907;41.412;2.164;2022-11-09T09:39:31;9.60;;;4.13;;
47153;SDS011;32907;41.412;2.164;2022-11-09T09:41:59;9.35;;;3.65;;
47153;SDS011;32907;41.412;2.164;2022-11-09T09:44:33;6.97;;;3.47;;
47153;SDS011;32907;41.412;2.164;2022-11-09T09:49:43;8.35;;;3.85;;
47153;SDS011;32907;41.412;2.164;2022-11-09T09:52:27;8.57;;;3.58;;
47153;SDS011;32907;41.412;2.164;2022-11-09T09:55:35;10.00;;;3.70;;
47153;SDS011;32907;41.412;2.164;2022-11-09T09:58:27;13.48;;;3.80;;
47153;SDS011;32907;41.412;2.164;2022-11-09T10:01:00;7.63;;;4.70;;
47153;SDS011;32907;41.412;2.164;2022-11-09T10:03:32;8.10;;;4.40;;
47153;SDS011;32907;41.412;2.164;2022-11-09T10:06:04;7.85;;;4.53;;
47153;SDS011;32907;41.412;2.164;2022-11-09T10:11:45;6.57;;;3.90;;
47153;SDS011;32907;41.412;2.164;2022-11-09T10:17:23;12.63;;;4.47;;
47153;SDS011;32907;41.412;2.164;2022-11-09T10:20:02;7.85;;;4.22;;
47153;SDS011;32907;41.412;2.164;2022-11-09T10:25:19;5.93;;;3.15;;
47153;SDS011;32907;41.412;2.164;2022-11-09T10:28:14;4.60;;;3.03;;
47153;SDS011;32907;41.412;2.164;2022-11-09T10:30:43;6.82;;;3.25;;
47153;SDS011;32907;41.412;2.164;2022-11-09T10:33:18;5.68;;;3.15;;
47153;SDS011;32907;41.412;2.164;2022-11-09T10:35:49;5.97;;;3.60;;
47153;SDS011;32907;41.412;2.164;2022-11-09T10:38:27;5.85;;;3.50;;
47153;SDS011;32907;41.412;2.164;2022-11-09T10:44:14;9.00;;;4.20;;
47153;SDS011;32907;41.412;2.164;2022-11-09T10:47:08;10.20;;;4.60;;
47153;SDS011;32907;41.412;2.164;2022-11-09T10:50:13;12.98;;;5.53;;
47153;SDS011;32907;41.412;2.164;2022-11-09T10:53:16;8.27;;;5.18;;
47153;SDS011;32907;41.412;2.164;2022-11-09T10:56:12;7.50;;;4.88;;
47153;SDS011;32907;41.412;2.164;2022-11-09T11:02:40;7.05;;;4.18;;
47153;SDS011;32907;41.412;2.164;2022-11-09T11:05:29;8.63;;;4.75;;
47153;SDS011;32907;41.412;2.164;2022-11-09T11:08:25;8.93;;;4.63;;
47153;SDS011;32907;41.412;2.164;2022-11-09T11:11:19;16.58;;;6.40;;
47153;SDS011;32907;41.412;2.164;2022-11-09T11:17:21;20.50;;;8.30;;
47153;SDS011;32907;41.412;2.164;2022-11-09T11:20:29;17.65;;;8.02;;
47153;SDS011;32907;41.412;2.164;2022-11-09T11:23:21;19.35;;;7.90;;
47153;SDS011;32907;41.412;2.164;2022-11-09T11:32:00;15.98;;;7.68;;
47153;SDS011;32907;41.412;2.164;2022-11-09T11:34:47;12.10;;;7.25;;
47153;SDS011;32907;41.412;2.164;2022-11-09T11:44:26;11.30;;;6.78;;
47153;SDS011;32907;41.412;2.164;2022-11-09T11:54:24;14.10;;;6.82;;
47153;SDS011;32907;41.412;2.164;2022-11-09T12:00:14;12.30;;;6.28;;
47153;SDS011;32907;41.412;2.164;2022-11-09T12:09:32;11.80;;;5.22;;
47153;SDS011;32907;41.412;2.164;2022-11-09T12:12:38;9.27;;;5.40;;
47153;SDS011;32907;41.412;2.164;2022-11-09T12:33:40;7.80;;;5.80;;
47153;SDS011;32907;41.412;2.164;2022-11-09T12:36:46;11.15;;;7.35;;
47153;SDS011;32907;41.412;2.164;2022-11-09T12:48:26;73.43;;;44.20;;
47153;SDS011;32907;41.412;2.164;2022-11-09T12:51:15;83.32;;;52.78;;
47153;SDS011;32907;41.412;2.164;2022-11-09T12:54:04;79.63;;;52.55;;
47153;SDS011;32907;41.412;2.164;2022-11-09T12:56:59;72.40;;;49.92;;
47153;SDS011;32907;41.412;2.164;2022-11-09T12:59:53;63.40;;;41.00;;
47153;SDS011;32907;41.412;2.164;2022-11-09T13:02:49;41.20;;;27.75;;
47153;SDS011;32907;41.412;2.164;2022-11-09T13:05:40;31.83;;;21.77;;
47153;SDS011;32907;41.412;2.164;2022-11-09T13:11:17;26.50;;;17.40;;
47153;SDS011;32907;41.412;2.164;2022-11-09T13:23:38;13.23;;;9.68;;
47153;SDS011;32907;41.412;2.164;2022-11-09T13:32:29;59.78;;;40.90;;
47153;SDS011;32907;41.412;2.164;2022-11-09T13:38:30;47.42;;;32.60;;
47153;SDS011;32907;41.412;2.164;2022-11-09T13:44:34;47.70;;;30.27;;
47153;SDS011;32907;41.412;2.164;2022-11-09T13:47:24;44.28;;;30.70;;
47153;SDS011;32907;41.412;2.164;2022-11-09T13:50:23;30.50;;;20.85;;
47153;SDS011;32907;41.412;2.164;2022-11-09T13:56:38;22.55;;;14.68;;
47153;SDS011;32907;41.412;2.164;2022-11-09T13:59:27;15.52;;;10.77;;
47153;SDS011;32907;41.412;2.164;2022-11-09T14:02:19;12.15;;;8.02;;
47153;SDS011;32907;41.412;2.164;2022-11-09T14:05:26;14.75;;;7.97;;
47153;SDS011;32907;41.412;2.164;2022-11-09T14:08:33;11.40;;;6.00;;
47153;SDS011;32907;41.412;2.164;2022-11-09T14:17:56;13.60;;;6.55;;
47153;SDS011;32907;41.412;2.164;2022-11-09T14:24:16;14.88;;;8.25;;
47153;SDS011;32907;41.412;2.164;2022-11-09T14:29:57;13.85;;;8.80;;
47153;SDS011;32907;41.412;2.164;2022-11-09T14:32:48;12.93;;;8.20;;
47153;SDS011;32907;41.412;2.164;2022-11-09T14:35:36;13.20;;;8.38;;
47153;SDS011;32907;41.412;2.164;2022-11-09T14:38:35;16.25;;;8.88;;
47153;SDS011;32907;41.412;2.164;2022-11-09T14:41:32;11.27;;;6.30;;
47153;SDS011;32907;41.412;2.164;2022-11-09T14:44:24;10.20;;;6.45;;
47153;SDS011;32907;41.412;2.164;2022-11-09T14:47:14;11.63;;;7.18;;
47153;SDS011;32907;41.412;2.164;2022-11-09T14:50:03;12.40;;;8.30;;
47153;SDS011;32907;41.412;2.164;2022-11-09T14:52:57;12.43;;;8.32;;
47153;SDS011;32907;41.412;2.164;2022-11-09T14:55:45;12.48;;;8.27;;
47153;SDS011;32907;41.412;2.164;2022-11-09T14:58:33;12.90;;;7.70;;
47153;SDS011;32907;41.412;2.164;2022-11-09T15:01:24;8.20;;;5.95;;
47153;SDS011;32907;41.412;2.164;2022-11-09T15:04:19;8.05;;;6.25;;
47153;SDS011;32907;41.412;2.164;2022-11-09T15:07:12;7.20;;;5.45;;
47153;SDS011;32907;41.412;2.164;2022-11-09T15:10:10;7.88;;;4.78;;
47153;SDS011;32907;41.412;2.164;2022-11-09T15:13:05;7.85;;;5.40;;
47153;SDS011;32907;41.412;2.164;2022-11-09T15:15:52;6.05;;;3.67;;
47153;SDS011;32907;41.412;2.164;2022-11-09T15:18:44;6.90;;;3.80;;
47153;SDS011;32907;41.412;2.164;2022-11-09T15:24:19;8.65;;;4.63;;
47153;SDS011;32907;41.412;2.164;2022-11-09T15:30:32;7.50;;;3.97;;
47153;SDS011;32907;41.412;2.164;2022-11-09T15:33:28;5.10;;;4.25;;
47153;SDS011;32907;41.412;2.164;2022-11-09T15:39:19;9.82;;;5.80;;
47153;SDS011;32907;41.412;2.164;2022-11-09T15:42:11;9.65;;;6.30;;
47153;SDS011;32907;41.412;2.164;2022-11-09T15:44:58;10.80;;;7.53;;
47153;SDS011;32907;41.412;2.164;2022-11-09T15:47:49;8.60;;;6.47;;
47153;SDS011;32907;41.412;2.164;2022-11-09T15:50:40;7.60;;;5.40;;
47153;SDS011;32907;41.412;2.164;2022-11-09T15:53:26;6.35;;;4.40;;
47153;SDS011;32907;41.412;2.164;2022-11-09T15:56:17;7.15;;;3.58;;
47153;SDS011;32907;41.412;2.164;2022-11-09T15:59:12;5.40;;;4.10;;
47153;SDS011;32907;41.412;2.164;2022-11-09T16:02:03;7.20;;;3.90;;
47153;SDS011;32907;41.412;2.164;2022-11-09T16:04:49;10.15;;;4.50;;
47153;SDS011;32907;41.412;2.164;2022-11-09T16:07:35;6.63;;;4.03;;
47153;SDS011;32907;41.412;2.164;2022-11-09T16:10:21;6.97;;;3.20;;
47153;SDS011;32907;41.412;2.164;2022-11-09T16:13:09;6.20;;;2.35;;
47153;SDS011;32907;41.412;2.164;2022-11-09T16:16:02;3.33;;;1.90;;
47153;SDS011;32907;41.412;2.164;2022-11-09T16:18:50;5.43;;;1.95;;
47153;SDS011;32907;41.412;2.164;2022-11-09T16:21:36;3.25;;;1.52;;
47153;SDS011;32907;41.412;2.164;2022-11-09T16:24:23;4.43;;;2.28;;
47153;SDS011;32907;41.412;2.164;2022-11-09T16:27:09;4.57;;;2.58;;
47153;SDS011;32907;41.412;2.164;2022-11-09T16:30:15;5.60;;;2.20;;
47153;SDS011;32907;41.412;2.164;2022-11-09T16:33:02;5.05;;;2.20;;
47153;SDS011;32907;41.412;2.164;2022-11-09T16:35:48;2.88;;;2.13;;
47153;SDS011;32907;41.412;2.164;2022-11-09T16:38:36;3.85;;;2.50;;
47153;SDS011;32907;41.412;2.164;2022-11-09T16:41:26;5.60;;;3.40;;
47153;SDS011;32907;41.412;2.164;2022-11-09T16:44:16;4.93;;;2.80;;
47153;SDS011;32907;41.412;2.164;2022-11-09T16:47:06;5.30;;;2.72;;
47153;SDS011;32907;41.412;2.164;2022-11-09T16:49:57;6.90;;;2.25;;
47153;SDS011;32907;41.412;2.164;2022-11-09T16:52:44;4.15;;;2.10;;
47153;SDS011;32907;41.412;2.164;2022-11-09T16:55:30;5.63;;;1.95;;
47153;SDS011;32907;41.412;2.164;2022-11-09T16:58:17;3.65;;;2.13;;
47153;SDS011;32907;41.412;2.164;2022-11-09T17:01:04;4.65;;;2.13;;
47153;SDS011;32907;41.412;2.164;2022-11-09T17:03:57;3.55;;;2.25;;
47153;SDS011;32907;41.412;2.164;2022-11-09T17:06:43;4.70;;;2.65;;
47153;SDS011;32907;41.412;2.164;2022-11-09T17:09:33;4.78;;;2.60;;
47153;SDS011;32907;41.412;2.164;2022-11-09T17:12:20;4.80;;;2.17;;
47153;SDS011;32907;41.412;2.164;2022-11-09T17:15:06;5.07;;;2.67;;
47153;SDS011;32907;41.412;2.164;2022-11-09T17:17:52;4.65;;;2.45;;
47153;SDS011;32907;41.412;2.164;2022-11-09T17:20:41;6.38;;;2.67;;
47153;SDS011;32907;41.412;2.164;2022-11-09T17:23:31;4.13;;;2.30;;
47153;SDS011;32907;41.412;2.164;2022-11-09T17:26:19;4.40;;;1.95;;
47153;SDS011;32907;41.412;2.164;2022-11-09T17:29:06;4.82;;;2.45;;
47153;SDS011;32907;41.412;2.164;2022-11-09T17:31:52;6.22;;;3.63;;
47153;SDS011;32907;41.412;2.164;2022-11-09T17:34:41;7.63;;;5.50;;
47153;SDS011;32907;41.412;2.164;2022-11-09T17:37:27;7.75;;;5.47;;
47153;SDS011;32907;41.412;2.164;2022-11-09T17:40:14;7.23;;;5.40;;
47153;SDS011;32907;41.412;2.164;2022-11-09T17:43:02;6.57;;;4.75;;
47153;SDS011;32907;41.412;2.164;2022-11-09T17:45:49;7.00;;;4.38;;
47153;SDS011;32907;41.412;2.164;2022-11-09T17:48:36;7.05;;;4.05;;
47153;SDS011;32907;41.412;2.164;2022-11-09T17:51:23;9.48;;;4.80;;
47153;SDS011;32907;41.412;2.164;2022-11-09T17:54:10;7.18;;;4.80;;